createdAt,value
2018-12-08T00:01:26.444Z,18.24
2018-12-08T00:03:54.203Z,18.23
2018-12-08T00:06:21.835Z,18.23
2018-12-08T00:08:49.480Z,18.23
2018-12-08T00:11:17.229Z,18.23
2018-12-08T00:13:44.824Z,18.23
2018-12-08T00:16:12.469Z,18.23
2018-12-08T00:18:40.099Z,18.22
2018-12-08T00:21:07.738Z,18.21
2018-12-08T00:23:35.406Z,18.20
2018-12-08T00:26:03.004Z,18.20
2018-12-08T00:28:30.689Z,18.20
2018-12-08T00:31:09.635Z,18.21
2018-12-08T00:33:37.473Z,18.22
2018-12-08T00:36:05.070Z,18.19
2018-12-08T00:38:32.669Z,18.20
2018-12-08T00:41:00.304Z,18.18
2018-12-08T00:43:27.894Z,18.17
2018-12-08T00:45:55.550Z,18.17
2018-12-08T00:48:23.141Z,18.17
2018-12-08T00:50:50.795Z,18.18
2018-12-08T00:53:18.417Z,18.18
2018-12-08T00:55:46.010Z,18.18
2018-12-08T00:58:13.593Z,18.17
2018-12-08T01:00:41.180Z,18.15
2018-12-08T01:03:08.882Z,18.14
2018-12-08T01:05:36.478Z,18.17
2018-12-08T01:08:04.125Z,18.17
2018-12-08T01:10:31.764Z,18.18
2018-12-08T01:12:59.335Z,18.15
2018-12-08T01:15:26.951Z,18.15
2018-12-08T01:17:54.658Z,18.14
2018-12-08T01:20:22.245Z,18.13
2018-12-08T01:22:49.841Z,18.13
2018-12-08T01:25:17.735Z,18.12
2018-12-08T01:27:45.333Z,18.11
2018-12-08T01:30:13.010Z,18.09
2018-12-08T01:32:40.584Z,18.09
2018-12-08T01:35:08.088Z,18.11
2018-12-08T01:37:35.681Z,18.13
2018-12-08T01:40:03.315Z,18.11
2018-12-08T01:42:30.948Z,18.10
2018-12-08T01:44:58.555Z,18.09
2018-12-08T01:47:26.215Z,18.11
2018-12-08T01:49:55.927Z,18.10
2018-12-08T01:52:23.566Z,18.10
2018-12-08T01:54:51.250Z,18.10
2018-12-08T01:57:18.879Z,18.11
2018-12-08T01:59:46.496Z,18.08
2018-12-08T02:02:14.148Z,18.07
2018-12-08T02:04:41.773Z,18.04
2018-12-08T02:07:09.401Z,18.04
2018-12-08T02:09:37.069Z,18.07
2018-12-08T02:12:04.695Z,18.06
2018-12-08T02:14:32.330Z,18.04
2018-12-08T02:16:59.952Z,18.04
2018-12-08T02:19:27.645Z,18.04
2018-12-08T02:21:55.330Z,18.05
2018-12-08T02:24:22.930Z,18.07
2018-12-08T02:26:50.563Z,18.05
2018-12-08T02:29:18.175Z,18.05
2018-12-08T02:31:45.819Z,18.04
2018-12-08T02:34:13.660Z,18.03
2018-12-08T02:36:41.239Z,18.06
2018-12-08T02:39:08.869Z,18.08
2018-12-08T02:41:36.505Z,18.06
2018-12-08T02:44:04.069Z,18.06
2018-12-08T02:46:31.704Z,18.06
2018-12-08T02:48:59.307Z,18.03
2018-12-08T02:51:26.921Z,18.04
2018-12-08T02:53:54.656Z,18.04
2018-12-08T02:56:22.264Z,18.02
2018-12-08T02:58:49.918Z,18.02
2018-12-08T03:01:17.558Z,18.01
2018-12-08T03:03:45.321Z,18.00
2018-12-08T03:06:12.943Z,18.01
2018-12-08T03:08:40.618Z,17.97
2018-12-08T03:11:08.320Z,18.02
2018-12-08T03:13:35.982Z,18.01
2018-12-08T03:16:03.624Z,18.00
2018-12-08T03:18:31.203Z,17.97
2018-12-08T03:20:58.851Z,17.99
2018-12-08T03:23:26.451Z,17.96
2018-12-08T03:25:54.079Z,17.93
2018-12-08T03:28:21.641Z,17.99
2018-12-08T03:30:49.241Z,17.96
2018-12-08T03:33:17.019Z,18.00
2018-12-08T03:35:44.666Z,18.01
2018-12-08T03:38:12.276Z,17.99
2018-12-08T03:40:39.897Z,17.99
2018-12-08T03:43:07.472Z,17.94
2018-12-08T03:45:35.076Z,17.95
2018-12-08T03:48:02.697Z,17.98
2018-12-08T03:50:30.299Z,18.00
2018-12-08T03:52:57.973Z,18.02
2018-12-08T03:55:25.554Z,17.99
2018-12-08T03:57:53.122Z,17.99
2018-12-08T04:00:20.843Z,17.94
2018-12-08T04:02:48.460Z,17.95
2018-12-08T04:05:16.068Z,17.94
2018-12-08T04:07:43.827Z,17.92
2018-12-08T04:10:11.669Z,17.90
2018-12-08T04:12:39.323Z,17.91
2018-12-08T04:15:07.150Z,17.89
2018-12-08T04:17:34.801Z,17.87
2018-12-08T04:20:02.435Z,17.89
2018-12-08T04:22:30.087Z,17.90
2018-12-08T04:24:57.713Z,17.91
2018-12-08T04:27:25.340Z,17.94
2018-12-08T04:29:52.945Z,17.91
2018-12-08T04:32:20.542Z,17.93
2018-12-08T04:34:48.279Z,17.96
2018-12-08T04:37:15.867Z,17.98
2018-12-08T04:39:43.476Z,17.99
2018-12-08T04:42:11.228Z,18.03
2018-12-08T04:44:38.873Z,18.05
2018-12-08T04:47:06.587Z,18.08
2018-12-08T04:49:34.345Z,18.09
2018-12-08T04:52:01.963Z,18.09
2018-12-08T04:54:29.574Z,18.09
2018-12-08T04:56:57.326Z,18.11
2018-12-08T04:59:24.924Z,18.13
2018-12-08T05:01:52.588Z,18.13
2018-12-08T05:04:20.270Z,18.16
2018-12-08T05:06:48.042Z,18.15
2018-12-08T05:09:15.619Z,18.17
2018-12-08T05:11:43.306Z,18.18
2018-12-08T05:14:10.904Z,18.20
2018-12-08T05:16:38.560Z,18.20
2018-12-08T05:19:06.263Z,18.22
2018-12-08T05:21:33.910Z,18.24
2018-12-08T05:24:01.567Z,18.22
2018-12-08T05:26:29.217Z,18.21
2018-12-08T05:28:56.845Z,18.20
2018-12-08T05:31:24.534Z,18.21
2018-12-08T05:33:52.199Z,18.23
2018-12-08T05:36:19.788Z,18.26
2018-12-08T05:38:47.380Z,18.26
2018-12-08T05:41:15.022Z,18.26
2018-12-08T05:43:42.607Z,18.25
2018-12-08T05:46:10.354Z,18.27
2018-12-08T05:48:37.969Z,18.27
2018-12-08T05:51:05.604Z,18.27
2018-12-08T05:53:33.283Z,18.26
2018-12-08T05:56:00.874Z,18.26
2018-12-08T05:58:28.455Z,18.27
2018-12-08T06:00:56.124Z,18.28
2018-12-08T06:03:23.703Z,18.28
2018-12-08T06:05:51.384Z,18.26
2018-12-08T06:08:19.010Z,18.30
2018-12-08T06:10:46.626Z,18.33
2018-12-08T06:13:14.282Z,18.32
2018-12-08T06:15:41.879Z,18.31
2018-12-08T06:18:09.604Z,18.33
2018-12-08T06:20:37.185Z,18.34
2018-12-08T06:23:04.775Z,18.34
2018-12-08T06:25:34.807Z,18.33
2018-12-08T06:28:14.810Z,18.35
2018-12-08T06:30:42.419Z,18.36
2018-12-08T06:33:09.989Z,18.37
2018-12-08T06:35:37.648Z,18.32
2018-12-08T06:38:05.292Z,18.35
2018-12-08T06:40:32.959Z,18.38
2018-12-08T06:43:00.608Z,18.39
2018-12-08T06:45:28.260Z,18.37
2018-12-08T06:47:55.897Z,18.36
2018-12-08T06:50:23.547Z,18.37
2018-12-08T06:52:51.167Z,18.36
2018-12-08T06:55:18.791Z,18.36
2018-12-08T06:57:46.407Z,18.39
2018-12-08T07:00:14.062Z,18.40
2018-12-08T07:02:41.700Z,18.42
2018-12-08T07:05:09.377Z,18.41
2018-12-08T07:07:37.011Z,18.42
2018-12-08T07:10:04.776Z,18.41
2018-12-08T07:12:32.565Z,18.41
2018-12-08T07:15:00.193Z,18.39
2018-12-08T07:17:27.805Z,18.37
2018-12-08T07:19:55.393Z,18.40
2018-12-08T07:22:23.017Z,18.39
2018-12-08T07:24:50.604Z,18.40
2018-12-08T07:27:18.233Z,18.41
2018-12-08T07:29:45.904Z,18.40
2018-12-08T07:32:13.546Z,18.39
2018-12-08T07:34:41.189Z,18.35
2018-12-08T07:37:08.860Z,18.35
2018-12-08T07:39:36.733Z,18.37
2018-12-08T07:42:04.369Z,18.37
2018-12-08T07:44:32.002Z,18.40
2018-12-08T07:46:59.623Z,18.40
2018-12-08T07:49:27.175Z,18.39
2018-12-08T07:51:54.783Z,18.39
2018-12-08T07:54:22.427Z,18.39
2018-12-08T07:56:50.181Z,18.40
2018-12-08T07:59:17.802Z,18.40
2018-12-08T08:01:45.421Z,18.40
2018-12-08T08:04:13.094Z,18.39
2018-12-08T08:06:40.831Z,18.41
2018-12-08T08:09:08.470Z,18.41
2018-12-08T08:11:36.134Z,18.40
2018-12-08T08:14:03.757Z,18.42
2018-12-08T08:16:31.328Z,18.44
2018-12-08T08:18:58.950Z,18.44
2018-12-08T08:21:26.605Z,18.43
2018-12-08T08:23:54.218Z,18.45
2018-12-08T08:26:21.815Z,18.44
2018-12-08T08:28:49.461Z,18.43
2018-12-08T08:31:17.045Z,18.41
2018-12-08T08:33:44.678Z,18.41
2018-12-08T08:36:12.330Z,18.45
2018-12-08T08:38:39.931Z,18.44
2018-12-08T08:41:07.554Z,18.46
2018-12-08T08:43:35.159Z,18.49
2018-12-08T08:46:02.814Z,18.47
2018-12-08T08:48:30.467Z,18.45
2018-12-08T08:50:58.078Z,18.48
2018-12-08T08:53:30.280Z,18.48
2018-12-08T08:55:57.920Z,18.46
2018-12-08T08:58:25.530Z,18.46
2018-12-08T09:00:53.152Z,18.47
2018-12-08T09:03:20.837Z,18.45
2018-12-08T09:05:48.467Z,18.47
2018-12-08T09:08:16.058Z,18.44
2018-12-08T09:10:43.687Z,18.48
2018-12-08T09:13:11.291Z,18.48
2018-12-08T09:15:38.925Z,18.48
2018-12-08T09:18:06.531Z,18.47
2018-12-08T09:20:34.113Z,18.45
2018-12-08T09:23:01.854Z,18.47
2018-12-08T09:25:29.477Z,18.47
2018-12-08T09:27:57.076Z,18.45
2018-12-08T09:30:24.809Z,18.41
2018-12-08T09:32:52.424Z,18.42
2018-12-08T09:35:20.028Z,18.44
2018-12-08T09:37:47.665Z,18.45
2018-12-08T09:40:15.248Z,18.45
2018-12-08T09:42:42.887Z,18.47
2018-12-08T09:45:10.701Z,18.46
2018-12-08T09:47:38.335Z,18.46
2018-12-08T09:50:06.883Z,18.46
2018-12-08T09:52:34.517Z,18.47
2018-12-08T09:55:02.130Z,18.50
2018-12-08T09:57:29.753Z,18.49
2018-12-08T09:59:57.382Z,18.48
2018-12-08T10:02:25.006Z,18.49
2018-12-08T10:04:52.729Z,18.49
2018-12-08T10:07:20.336Z,18.48
2018-12-08T10:09:47.982Z,18.49
2018-12-08T10:12:15.631Z,18.49
2018-12-08T10:14:43.218Z,18.47
2018-12-08T10:17:10.857Z,18.46
2018-12-08T10:19:38.473Z,18.47
2018-12-08T10:22:06.130Z,18.48
2018-12-08T10:24:33.802Z,18.50
2018-12-08T10:27:01.445Z,18.50
2018-12-08T10:29:29.092Z,18.48
2018-12-08T10:31:56.767Z,18.48
2018-12-08T10:34:24.531Z,18.46
2018-12-08T10:36:52.134Z,18.46
2018-12-08T10:39:19.765Z,18.46
2018-12-08T10:41:47.439Z,18.44
2018-12-08T10:44:15.054Z,18.44
2018-12-08T10:46:42.770Z,18.50
2018-12-08T10:49:10.335Z,18.50
2018-12-08T10:51:37.942Z,18.48
2018-12-08T10:54:05.581Z,18.49
2018-12-08T10:56:33.219Z,18.48
2018-12-08T10:59:00.818Z,18.49
2018-12-08T11:01:34.044Z,18.50
2018-12-08T11:04:01.692Z,18.51
2018-12-08T11:06:29.339Z,18.51
2018-12-08T11:08:57.003Z,18.47
2018-12-08T11:11:24.637Z,18.47
2018-12-08T11:13:52.327Z,18.49
2018-12-08T11:16:19.959Z,18.53
2018-12-08T11:18:47.555Z,18.54
2018-12-08T11:21:15.191Z,18.53
2018-12-08T11:23:42.778Z,18.49
2018-12-08T11:26:10.401Z,18.51
2018-12-08T11:28:38.046Z,18.49
2018-12-08T11:31:05.703Z,18.47
2018-12-08T11:33:33.334Z,18.46
2018-12-08T11:36:00.967Z,18.47
2018-12-08T11:38:28.977Z,18.50
2018-12-08T11:40:56.552Z,18.52
2018-12-08T11:43:24.146Z,18.54
2018-12-08T11:45:51.806Z,18.55
2018-12-08T11:48:19.368Z,18.53
2018-12-08T11:50:47.129Z,18.57
2018-12-08T11:53:14.744Z,18.57
2018-12-08T11:55:42.356Z,18.58
2018-12-08T11:58:10.020Z,18.56
2018-12-08T12:00:38.308Z,18.56
2018-12-08T12:03:05.887Z,18.55
2018-12-08T12:05:33.564Z,18.57
2018-12-08T12:08:01.233Z,18.58
2018-12-08T12:10:28.920Z,18.57
2018-12-08T12:12:56.624Z,18.52
2018-12-08T12:15:24.264Z,18.51
2018-12-08T12:17:51.868Z,18.52
2018-12-08T12:20:19.508Z,18.54
2018-12-08T12:22:47.148Z,18.55
2018-12-08T12:25:15.178Z,18.53
2018-12-08T12:27:43.173Z,18.53
2018-12-08T12:30:10.889Z,18.53
2018-12-08T12:32:38.529Z,18.53
2018-12-08T12:35:06.186Z,18.53
2018-12-08T12:37:33.896Z,18.53
2018-12-08T12:40:01.569Z,18.52
2018-12-08T12:42:29.364Z,18.53
2018-12-08T12:44:57.034Z,18.56
2018-12-08T12:47:24.641Z,18.53
2018-12-08T12:49:52.340Z,18.51
2018-12-08T12:52:19.987Z,18.49
2018-12-08T12:54:47.651Z,18.47
2018-12-08T12:57:15.295Z,18.45
2018-12-08T12:59:42.912Z,18.46
2018-12-08T13:02:10.703Z,18.47
2018-12-08T13:04:38.344Z,18.48
2018-12-08T13:07:05.944Z,18.48
2018-12-08T13:09:34.508Z,18.45
2018-12-08T13:12:02.337Z,18.44
2018-12-08T13:14:29.983Z,18.42
2018-12-08T13:16:58.783Z,18.42
2018-12-08T13:19:26.449Z,18.42
2018-12-08T13:21:54.472Z,18.45
2018-12-08T13:24:22.274Z,18.48
2018-12-08T13:26:49.962Z,18.48
2018-12-08T13:29:17.607Z,18.50
2018-12-08T13:31:45.443Z,18.49
2018-12-08T13:34:23.123Z,18.48
2018-12-08T13:36:50.857Z,18.47
2018-12-08T13:39:18.546Z,18.46
2018-12-08T13:41:46.239Z,18.43
2018-12-08T13:44:24.020Z,18.42
2018-12-08T13:46:51.675Z,18.41
2018-12-08T13:49:19.794Z,18.40
2018-12-08T13:51:47.525Z,18.40
2018-12-08T13:54:54.560Z,18.40
2018-12-08T13:57:22.162Z,18.35
2018-12-08T13:59:54.959Z,18.34
2018-12-08T14:02:22.690Z,18.37
2018-12-08T14:04:50.552Z,18.40
2018-12-08T14:07:18.181Z,18.36
2018-12-08T14:09:45.915Z,18.34
2018-12-08T14:12:13.545Z,18.32
2018-12-08T14:14:41.188Z,18.32
2018-12-08T14:17:08.829Z,18.31
2018-12-08T14:19:43.000Z,18.27
2018-12-08T14:22:10.707Z,18.27
2018-12-08T14:24:38.356Z,18.24
2018-12-08T14:27:06.172Z,18.26
2018-12-08T14:29:33.792Z,18.27
2018-12-08T14:32:01.799Z,18.30
2018-12-08T14:34:29.492Z,18.28
2018-12-08T14:36:57.103Z,18.27
2018-12-08T14:39:24.749Z,18.29
2018-12-08T14:41:52.335Z,18.29
2018-12-08T14:44:20.175Z,18.29
2018-12-08T14:46:47.803Z,18.25
2018-12-08T14:49:15.525Z,18.24
2018-12-08T14:51:43.177Z,18.25
2018-12-08T14:54:18.510Z,18.26
2018-12-08T14:56:46.237Z,18.23
2018-12-08T14:59:13.889Z,18.22
2018-12-08T15:01:41.532Z,18.23
2018-12-08T15:04:09.214Z,18.24
2018-12-08T15:06:36.906Z,18.24
2018-12-08T15:09:06.379Z,18.25
2018-12-08T15:11:34.039Z,18.25
2018-12-08T15:14:02.133Z,18.24
2018-12-08T15:16:29.779Z,18.25
2018-12-08T15:18:57.454Z,18.25
2018-12-08T15:21:25.125Z,18.26
2018-12-08T15:23:52.785Z,18.24
2018-12-08T15:26:20.428Z,18.25
2018-12-08T15:28:48.147Z,18.24
2018-12-08T15:31:15.820Z,18.23
2018-12-08T15:33:43.484Z,18.24
2018-12-08T15:36:11.151Z,18.23
2018-12-08T15:38:38.744Z,18.22
2018-12-08T15:41:06.471Z,18.21
2018-12-08T15:43:34.164Z,18.19
2018-12-08T15:46:01.868Z,18.18
2018-12-08T15:48:29.513Z,18.17
2018-12-08T15:50:57.161Z,18.19
2018-12-08T15:53:24.817Z,18.19
2018-12-08T15:55:52.440Z,18.17
2018-12-08T15:58:20.093Z,18.17
2018-12-08T16:00:47.726Z,18.18
2018-12-08T16:03:15.372Z,18.19
2018-12-08T16:05:43.119Z,18.17
2018-12-08T16:08:10.808Z,18.17
2018-12-08T16:10:38.601Z,18.18
2018-12-08T16:13:06.237Z,18.17
2018-12-08T16:15:33.910Z,18.17
2018-12-08T16:18:01.617Z,18.14
2018-12-08T16:20:29.317Z,18.13
2018-12-08T16:22:56.931Z,18.14
2018-12-08T16:25:24.612Z,18.11
2018-12-08T16:27:52.409Z,18.11
2018-12-08T16:30:20.061Z,18.12
2018-12-08T16:32:47.705Z,18.12
2018-12-08T16:35:15.386Z,18.13
2018-12-08T16:37:43.113Z,18.13
2018-12-08T16:40:10.912Z,18.14
2018-12-08T16:42:38.539Z,18.12
2018-12-08T16:45:07.864Z,18.12
2018-12-08T16:47:35.525Z,18.13
2018-12-08T16:50:03.550Z,18.12
2018-12-08T16:52:31.262Z,18.13
2018-12-08T16:54:58.936Z,18.14
2018-12-08T16:57:26.576Z,18.12
2018-12-08T16:59:54.204Z,18.11
2018-12-08T17:02:21.907Z,18.13
2018-12-08T17:04:49.568Z,18.11
2018-12-08T17:07:17.193Z,18.08
2018-12-08T17:09:44.845Z,18.12
2018-12-08T17:12:12.494Z,18.15
2018-12-08T17:14:40.179Z,18.14
2018-12-08T17:17:07.808Z,18.15
2018-12-08T17:19:35.474Z,18.15
2018-12-08T17:22:03.171Z,18.16
2018-12-08T17:24:30.831Z,18.16
2018-12-08T17:26:58.495Z,18.18
2018-12-08T17:29:26.173Z,18.16
2018-12-08T17:31:53.824Z,18.16
2018-12-08T17:34:21.487Z,18.15
2018-12-08T17:36:49.169Z,18.15
2018-12-08T17:39:16.783Z,18.17
2018-12-08T17:41:44.535Z,18.18
2018-12-08T17:44:12.154Z,18.17
2018-12-08T17:46:39.809Z,18.18
2018-12-08T17:49:07.442Z,18.15
2018-12-08T17:51:35.093Z,18.16
2018-12-08T17:54:03.216Z,18.17
2018-12-08T17:56:31.041Z,18.18
2018-12-08T17:59:00.255Z,18.16
2018-12-08T18:01:27.959Z,18.19
2018-12-08T18:03:55.664Z,18.16
2018-12-08T18:06:23.325Z,18.11
2018-12-08T18:08:50.991Z,18.13
2018-12-08T18:11:18.673Z,18.16
2018-12-08T18:13:46.227Z,18.15
2018-12-08T18:16:13.827Z,18.18
2018-12-08T18:18:41.405Z,18.19
2018-12-08T18:21:09.164Z,18.18
2018-12-08T18:23:36.832Z,18.18
2018-12-08T18:26:04.527Z,18.18
2018-12-08T18:28:32.192Z,18.18
2018-12-08T18:30:59.767Z,18.18
2018-12-08T18:33:27.394Z,18.17
2018-12-08T18:35:54.962Z,18.19
2018-12-08T18:38:22.539Z,18.18
2018-12-08T18:40:50.313Z,18.18
2018-12-08T18:43:17.943Z,18.17
2018-12-08T18:45:45.588Z,18.19
2018-12-08T18:48:13.216Z,18.19
2018-12-08T18:50:40.819Z,18.19
2018-12-08T18:53:09.255Z,18.20
2018-12-08T18:55:37.075Z,18.18
2018-12-08T18:58:04.821Z,18.18
2018-12-08T19:00:32.428Z,18.19
2018-12-08T19:03:00.053Z,18.17
2018-12-08T19:05:27.693Z,18.17
2018-12-08T19:07:55.273Z,18.21
2018-12-08T19:10:22.893Z,18.21
2018-12-08T19:12:50.525Z,18.22
2018-12-08T19:15:18.127Z,18.21
2018-12-08T19:17:45.738Z,18.18
2018-12-08T19:20:13.339Z,18.18
2018-12-08T19:22:40.939Z,18.19
2018-12-08T19:25:08.511Z,18.17
2018-12-08T19:27:36.186Z,18.17
2018-12-08T19:30:04.111Z,18.17
2018-12-08T19:32:31.682Z,18.18
2018-12-08T19:34:59.284Z,18.19
2018-12-08T19:37:26.903Z,18.19
2018-12-08T19:39:54.490Z,18.20
2018-12-08T19:42:22.247Z,18.20
2018-12-08T19:44:49.835Z,18.21
2018-12-08T19:47:17.419Z,18.21
2018-12-08T19:49:45.109Z,18.20
2018-12-08T19:52:12.745Z,18.22
2018-12-08T19:54:40.357Z,18.23
2018-12-08T19:57:08.003Z,18.23
2018-12-08T19:59:35.598Z,18.24
2018-12-08T20:02:03.269Z,18.22
2018-12-08T20:04:30.943Z,18.24
2018-12-08T20:06:58.697Z,18.24
2018-12-08T20:09:26.388Z,18.23
2018-12-08T20:11:54.031Z,18.25
2018-12-08T20:14:21.620Z,18.28
2018-12-08T20:16:49.211Z,18.28
2018-12-08T20:19:16.920Z,18.28
2018-12-08T20:21:44.521Z,18.25
2018-12-08T20:24:12.142Z,18.23
2018-12-08T20:26:39.848Z,18.24
2018-12-08T20:29:07.509Z,18.21
2018-12-08T20:31:35.147Z,18.24
2018-12-08T20:34:02.823Z,18.22
2018-12-08T20:36:30.478Z,18.23
2018-12-08T20:38:58.299Z,18.22
2018-12-08T20:41:26.099Z,18.21
2018-12-08T20:43:53.742Z,18.21
2018-12-08T20:46:21.380Z,18.20
2018-12-08T20:48:48.985Z,18.21
2018-12-08T20:51:16.772Z,18.21
2018-12-08T20:53:44.393Z,18.19
2018-12-08T20:56:12.002Z,18.18
2018-12-08T20:58:39.607Z,18.16
2018-12-08T21:01:07.190Z,18.15
2018-12-08T21:03:34.831Z,18.16
2018-12-08T21:06:02.428Z,18.15
2018-12-08T21:08:30.072Z,18.16
2018-12-08T21:10:57.696Z,18.17
2018-12-08T21:13:25.415Z,18.18
2018-12-08T21:15:52.983Z,18.18
2018-12-08T21:18:20.607Z,18.18
2018-12-08T21:20:48.294Z,18.21
2018-12-08T21:23:15.950Z,18.22
2018-12-08T21:25:43.548Z,18.22
2018-12-08T21:28:11.204Z,18.20
2018-12-08T21:30:38.793Z,18.15
2018-12-08T21:33:06.408Z,18.20
2018-12-08T21:35:34.028Z,18.22
2018-12-08T21:38:01.599Z,18.21
2018-12-08T21:40:29.816Z,18.19
2018-12-08T21:42:57.480Z,18.17
2018-12-08T21:45:26.198Z,18.19
2018-12-08T21:47:53.827Z,18.20
2018-12-08T21:50:21.460Z,18.19
2018-12-08T21:52:49.077Z,18.17
2018-12-08T21:55:16.711Z,18.19
2018-12-08T21:57:44.324Z,18.19
2018-12-08T22:00:12.011Z,18.18
2018-12-08T22:02:39.699Z,18.19
2018-12-08T22:05:07.336Z,18.17
2018-12-08T22:07:34.929Z,18.15
2018-12-08T22:10:02.498Z,18.17
2018-12-08T22:12:30.143Z,18.18
2018-12-08T22:14:57.735Z,18.20
2018-12-08T22:17:25.442Z,18.19
2018-12-08T22:19:53.146Z,18.18
2018-12-08T22:22:20.785Z,18.15
2018-12-08T22:24:48.426Z,18.14
2018-12-08T22:27:16.004Z,18.15
2018-12-08T22:29:43.617Z,18.17
2018-12-08T22:32:11.214Z,18.16
2018-12-08T22:34:38.839Z,18.17
2018-12-08T22:37:06.443Z,18.16
2018-12-08T22:39:34.103Z,18.13
2018-12-08T22:42:01.726Z,18.13
2018-12-08T22:44:29.409Z,18.13
2018-12-08T22:46:57.005Z,18.13
2018-12-08T22:49:24.573Z,18.11
2018-12-08T22:51:52.164Z,18.13
2018-12-08T22:54:19.787Z,18.12
2018-12-08T22:56:47.440Z,18.13
2018-12-08T22:59:15.034Z,18.15
2018-12-08T23:01:42.798Z,18.15
2018-12-08T23:04:10.410Z,18.18
2018-12-08T23:06:38.049Z,18.18
2018-12-08T23:09:06.114Z,18.18
2018-12-08T23:11:33.750Z,18.16
2018-12-08T23:14:01.484Z,18.19
2018-12-08T23:16:29.116Z,18.19
2018-12-08T23:18:56.748Z,18.22
2018-12-08T23:21:24.410Z,18.22
2018-12-08T23:23:52.024Z,18.21
2018-12-08T23:26:19.697Z,18.22
2018-12-08T23:28:47.346Z,18.21
2018-12-08T23:31:15.018Z,18.22
2018-12-08T23:33:42.738Z,18.23
2018-12-08T23:36:10.358Z,18.23
2018-12-08T23:38:37.963Z,18.23
2018-12-08T23:41:05.562Z,18.25
2018-12-08T23:43:33.331Z,18.24
2018-12-08T23:46:00.986Z,18.22
2018-12-08T23:48:28.610Z,18.25
2018-12-08T23:50:56.256Z,18.24
2018-12-08T23:53:23.881Z,18.27
2018-12-08T23:55:51.503Z,18.29
2018-12-08T23:58:19.273Z,18.28
